Time;durP1;ratioP1;P1;durP2;ratioP2;P2;SDS_P1;SDS_P2;PMS_P1;PMS_P2;Temp;Humidity;BMP_temperature;BMP_pressure;BME280_temperature;BME280_humidity;BME280_pressure;Samples;Min_cycle;Max_cycle;Signal;HPM_P1;HPM_P2
2023/07/03 00:00:56;;;;;;;;;;;;;;;;;;5114668;28;19919;-61
2023/07/03 00:03:22;;;;;;;;;;;;;;;;;;5111291;28;19934;-61
2023/07/03 00:05:49;;;;;;;;;;;;;;;;;;5115740;28;19920;-61
2023/07/03 00:08:16;;;;;;;;;;;;;;;;;;5115866;28;19920;-61
2023/07/03 00:10:42;;;;;;;;;;;;;;;;;;5114521;28;19919;-60
2023/07/03 00:13:09;;;;;;;;;;;;;;;;;;5096694;28;20268;-60
2023/07/03 00:15:35;;;;;;;;;;;;;;;;;;5095057;28;19920;-60
2023/07/03 00:18:02;;;;;;;;;;;;;;;;;;5093377;28;19920;-61
2023/07/03 00:20:28;;;;;;;;;;;;;;;;;;5113199;28;19927;-60
2023/07/03 00:22:55;;;;;;;;;;;;;;;;;;5115630;28;19920;-60
2023/07/03 00:25:21;;;;;;;;;;;;;;;;;;5115361;28;19930;-60
2023/07/03 00:27:48;;;;;;;;;;;;;;;;;;5115535;28;20272;-60
2023/07/03 00:30:15;;;;;;;;;;;;;;;;;;5112788;28;20291;-60
2023/07/03 00:32:41;;;;;;;;;;;;;;;;;;5115399;28;19938;-61
2023/07/03 00:35:07;;;;;;;;;;;;;;;;;;5110000;28;20268;-61
2023/07/03 00:37:34;;;;;;;;;;;;;;;;;;5115407;28;19926;-60
2023/07/03 00:40:01;;;;;;;;;;;;;;;;;;5112494;28;20315;-60
2023/07/03 00:42:27;;;;;;;;;;;;;;;;;;5115291;28;19919;-60
2023/07/03 00:44:54;;;;;;;;;;;;;;;;;;5106194;28;19934;-60
2023/07/03 00:47:20;;;;;;;;;;;;;;;;;;5113875;28;20368;-60
2023/07/03 00:49:46;;;;;;;;;;;;;;;;;;5109285;28;19943;-60
2023/07/03 00:52:13;;;;;;;;;;;;;;;;;;5115142;28;19920;-60
2023/07/03 00:54:39;;;;;;;;;;;;;;;;;;5114604;28;19927;-60
2023/07/03 00:57:07;;;;;;;;;;;;;;;;;;5112365;28;19919;-60
2023/07/03 00:59:33;;;;;;;;;;;;;;;;;;5111450;28;19926;-60
2023/07/03 01:02:00;;;;;;;;;;;;;;;;;;5114583;28;19923;-61
2023/07/03 01:04:26;;;;;;;;;;;;;;;;;;5108236;28;19924;-60
2023/07/03 01:06:54;;;;;;;;;;;;;;;;;;5114822;28;19920;-60
2023/07/03 01:09:20;;;;;;;;;;;;;;;;;;5114733;28;19920;-60
2023/07/03 01:11:47;;;;;;;;;;;;;;;;;;5106882;28;19920;-61
2023/07/03 01:14:13;;;;;;;;;;;;;;;;;;5098193;28;19926;-60
2023/07/03 01:16:40;;;;;;;;;;;;;;;;;;5114399;28;19920;-60
2023/07/03 01:19:06;;;;;;;;;;;;;;;;;;5110405;28;20284;-61
2023/07/03 01:21:33;;;;;;;;;;;;;;;;;;5113052;28;19927;-61
2023/07/03 01:23:59;;;;;;;;;;;;;;;;;;5113334;28;19919;-61
2023/07/03 01:26:25;;;;;;;;;;;;;;;;;;5114539;28;19920;-60
2023/07/03 01:28:52;;;;;;;;;;;;;;;;;;5110786;28;20406;-60
2023/07/03 01:31:18;;;;;;;;;;;;;;;;;;5113560;28;19919;-60
2023/07/03 01:33:45;;;;;;;;;;;;;;;;;;5112815;28;19927;-60
2023/07/03 01:36:12;;;;;;;;;;;;;;;;;;5107225;28;19924;-60
2023/07/03 01:38:38;;;;;;;;;;;;;;;;;;5114403;28;19920;-60
2023/07/03 01:41:05;;;;;;;;;;;;;;;;;;5114195;28;20386;-60
2023/07/03 01:43:31;;;;;;;;;;;;;;;;;;5112629;28;19923;-61
2023/07/03 01:45:58;;;;;;;;;;;;;;;;;;5114125;28;19920;-60
2023/07/03 01:48:25;;;;;;;;;;;;;;;;;;5113867;28;19919;-60
2023/07/03 01:50:51;;;;;;;;;;;;;;;;;;5107630;28;19927;-60
2023/07/03 01:53:18;;;;;;;;;;;;;;;;;;5113804;28;19920;-60
2023/07/03 01:55:44;;;;;;;;;;;;;;;;;;5113536;28;20368;-60
2023/07/03 01:58:11;;;;;;;;;;;;;;;;;;5113923;28;19920;-60
2023/07/03 02:00:37;;;;;;;;;;;;;;;;;;5110477;28;19920;-60
2023/07/03 02:03:04;;;;;;;;;;;;;;;;;;5113914;28;20240;-60
2023/07/03 02:05:32;;;;;;;;;;;;;;;;;;5107684;28;19927;-60
2023/07/03 02:07:58;;;;;;;;;;;;;;;;;;5113705;28;19920;-60
2023/07/03 02:10:25;;;;;;;;;;;;;;;;;;5111876;28;19920;-60
2023/07/03 02:12:51;;;;;;;;;;;;;;;;;;5096714;28;19927;-60
2023/07/03 02:15:18;;;;;;;;;;;;;;;;;;5093023;28;19931;-60
2023/07/03 02:17:45;;;;;;;;;;;;;;;;;;5093127;28;20380;-61
2023/07/03 02:20:14;;;;;;;;;;;;;;;;;;5093414;28;19923;-60
2023/07/03 02:22:41;;;;;;;;;;;;;;;;;;5113378;28;20260;-60
2023/07/03 02:25:07;;;;;;;;;;;;;;;;;;5113275;28;19919;-60
2023/07/03 02:27:33;;;;;;;;;;;;;;;;;;5113473;28;19920;-61
2023/07/03 02:30:00;;;;;;;;;;;;;;;;;;5111069;28;20372;-61
2023/07/03 02:32:26;;;;;;;;;;;;;;;;;;5113811;28;20234;-59
2023/07/03 02:34:53;;;;;;;;;;;;;;;;;;5091845;28;19947;-59
2023/07/03 02:37:19;;;;;;;;;;;;;;;;;;5082249;28;19927;-59
2023/07/03 02:39:46;;;;;;;;;;;;;;;;;;5087632;28;19920;-59
2023/07/03 02:42:12;;;;;;;;;;;;;;;;;;5072287;28;19924;-60
2023/07/03 02:44:39;;;;;;;;;;;;;;;;;;5072733;28;19943;-61
2023/07/03 02:47:05;;;;;;;;;;;;;;;;;;5072962;28;19920;-60
2023/07/03 02:49:32;;;;;;;;;;;;;;;;;;5072372;28;20196;-61
2023/07/03 02:51:58;;;;;;;;;;;;;;;;;;5072307;28;19927;-60
2023/07/03 02:54:25;;;;;;;;;;;;;;;;;;5072788;28;19927;-60
2023/07/03 02:56:51;;;;;;;;;;;;;;;;;;5072368;28;19927;-60
2023/07/03 02:59:18;;;;;;;;;;;;;;;;;;5072811;28;20261;-60
2023/07/03 03:01:44;;;;;;;;;;;;;;;;;;5071860;28;19920;-60
2023/07/03 03:04:11;;;;;;;;;;;;;;;;;;5072953;28;19927;-60
2023/07/03 03:06:37;;;;;;;;;;;;;;;;;;5071106;28;19920;-60
2023/07/03 03:09:05;;;;;;;;;;;;;;;;;;5074772;28;19920;-60
2023/07/03 03:11:31;;;;;;;;;;;;;;;;;;5074969;28;20289;-60
2023/07/03 03:13:57;;;;;;;;;;;;;;;;;;5076367;28;19921;-60
2023/07/03 03:16:24;;;;;;;;;;;;;;;;;;5076432;28;19927;-61
2023/07/03 03:18:51;;;;;;;;;;;;;;;;;;5075892;28;19920;-61
2023/07/03 03:21:17;;;;;;;;;;;;;;;;;;5073738;28;19927;-60
2023/07/03 03:23:43;;;;;;;;;;;;;;;;;;5076100;28;19920;-60
2023/07/03 03:26:10;;;;;;;;;;;;;;;;;;5076066;28;20261;-60
2023/07/03 03:28:36;;;;;;;;;;;;;;;;;;5076135;28;19920;-60
2023/07/03 03:31:03;;;;;;;;;;;;;;;;;;5075075;28;19931;-60
2023/07/03 03:33:29;;;;;;;;;;;;;;;;;;5073581;28;19927;-60
2023/07/03 03:35:56;;;;;;;;;;;;;;;;;;5083555;28;20287;-60
2023/07/03 03:38:22;;;;;;;;;;;;;;;;;;5100565;28;19919;-60
2023/07/03 03:40:49;;;;;;;;;;;;;;;;;;5086664;28;19927;-61
2023/07/03 03:43:15;;;;;;;;;;;;;;;;;;5075683;28;19928;-60
2023/07/03 03:45:42;;;;;;;;;;;;;;;;;;5085902;28;19920;-60
2023/07/03 03:48:08;;;;;;;;;;;;;;;;;;5095512;28;20269;-60
2023/07/03 03:50:35;;;;;;;;;;;;;;;;;;5094882;28;20403;-60
2023/07/03 03:53:01;;;;;;;;;;;;;;;;;;5095005;28;19920;-60
2023/07/03 03:55:27;;;;;;;;;;;;;;;;;;5093482;28;19927;-60
2023/07/03 03:57:54;;;;;;;;;;;;;;;;;;5095391;28;19919;-59
2023/07/03 04:00:21;;;;;;;;;;;;;;;;;;5095625;28;19919;-59
2023/07/03 04:02:48;;;;;;;;;;;;;;;;;;5095227;28;20380;-60
2023/07/03 04:05:14;;;;;;;;;;;;;;;;;;5107893;28;19920;-60
2023/07/03 04:07:41;;;;;;;;;;;;;;;;;;5098286;28;19942;-59
2023/07/03 04:10:08;;;;;;;;;;;;;;;;;;5088962;28;19986;-59
2023/07/03 04:12:34;;;;;;;;;;;;;;;;;;5094765;28;19920;-60
2023/07/03 04:15:01;;;;;;;;;;;;;;;;;;5095454;28;19920;-61
2023/07/03 04:17:27;;;;;;;;;;;;;;;;;;5095333;28;19920;-62
2023/07/03 04:19:54;;;;;;;;;;;;;;;;;;5114545;28;19919;-61
2023/07/03 04:22:20;;;;;;;;;;;;;;;;;;5097418;28;19927;-61
2023/07/03 04:24:46;;;;;;;;;;;;;;;;;;5095794;28;19927;-62
2023/07/03 04:27:14;;;;;;;;;;;;;;;;;;5115451;28;19930;-61
2023/07/03 04:29:41;;;;;;;;;;;;;;;;;;5107195;28;19946;-61
2023/07/03 04:32:07;;;;;;;;;;;;;;;;;;5095250;28;19920;-62
2023/07/03 04:34:34;;;;;;;;;;;;;;;;;;5095169;28;19926;-62
2023/07/03 04:37:03;;;;;;;;;;;;;;;;;;5094167;28;19924;-62
2023/07/03 04:39:30;;;;;;;;;;;;;;;;;;5094513;28;20302;-61
2023/07/03 04:41:59;;;;;;;;;;;;;;;;;;5113540;28;19943;-61
2023/07/03 04:44:26;;;;;;;;;;;;;;;;;;5115556;28;19919;-62
2023/07/03 04:46:55;;;;;;;;;;;;;;;;;;5084567;28;19934;-63
2023/07/03 04:49:23;;;;;;;;;;;;;;;;;;5095196;28;20308;-62
2023/07/03 04:51:52;;;;;;;;;;;;;;;;;;5092189;28;19920;-61
2023/07/03 04:54:18;;;;;;;;;;;;;;;;;;5094966;28;20372;-61
2023/07/03 04:56:46;;;;;;;;;;;;;;;;;;5094058;28;20361;-61
2023/07/03 04:59:13;;;;;;;;;;;;;;;;;;5092995;28;19927;-61
2023/07/03 05:01:42;;;;;;;;;;;;;;;;;;5094626;28;19927;-62
2023/07/03 05:04:09;;;;;;;;;;;;;;;;;;5094504;28;19920;-61
2023/07/03 05:06:35;;;;;;;;;;;;;;;;;;5093529;28;19931;-61
2023/07/03 05:09:02;;;;;;;;;;;;;;;;;;5093813;28;19920;-62
2023/07/03 05:11:29;;;;;;;;;;;;;;;;;;5094250;28;19920;-61
2023/07/03 05:13:55;;;;;;;;;;;;;;;;;;5094301;28;19920;-61
2023/07/03 05:16:22;;;;;;;;;;;;;;;;;;5093982;28;19927;-61
2023/07/03 05:18:48;;;;;;;;;;;;;;;;;;5093785;28;20372;-61
2023/07/03 05:21:15;;;;;;;;;;;;;;;;;;5094549;28;20015;-61
2023/07/03 05:23:41;;;;;;;;;;;;;;;;;;5093047;28;19927;-61
2023/07/03 05:26:08;;;;;;;;;;;;;;;;;;5106634;28;19920;-61
2023/07/03 05:28:34;;;;;;;;;;;;;;;;;;5114330;28;19930;-61
2023/07/03 05:31:01;;;;;;;;;;;;;;;;;;5113790;28;20293;-60
2023/07/03 05:33:27;;;;;;;;;;;;;;;;;;5109252;28;19920;-61
2023/07/03 05:35:54;;;;;;;;;;;;;;;;;;5113924;28;19931;-61
2023/07/03 05:38:20;;;;;;;;;;;;;;;;;;5097454;28;19920;-61
2023/07/03 05:40:49;;;;;;;;;;;;;;;;;;5113658;28;19920;-61
2023/07/03 05:43:16;;;;;;;;;;;;;;;;;;5113570;28;19920;-60
2023/07/03 05:45:42;;;;;;;;;;;;;;;;;;5103280;28;19920;-61
2023/07/03 05:48:09;;;;;;;;;;;;;;;;;;5090019;28;19920;-61
2023/07/03 05:50:35;;;;;;;;;;;;;;;;;;5089114;28;19920;-61
2023/07/03 05:53:02;;;;;;;;;;;;;;;;;;5089463;28;19929;-61
2023/07/03 05:55:29;;;;;;;;;;;;;;;;;;5092039;28;19928;-60
2023/07/03 05:57:55;;;;;;;;;;;;;;;;;;5084847;28;19920;-60
2023/07/03 06:00:23;;;;;;;;;;;;;;;;;;5092596;28;19926;-60
2023/07/03 06:02:51;;;;;;;;;;;;;;;;;;5093451;28;19927;-60
2023/07/03 06:05:18;;;;;;;;;;;;;;;;;;5103080;28;19920;-60
2023/07/03 06:07:44;;;;;;;;;;;;;;;;;;5095928;28;19931;-59
2023/07/03 06:10:12;;;;;;;;;;;;;;;;;;5091052;28;19920;-60
2023/07/03 06:12:38;;;;;;;;;;;;;;;;;;5092330;28;19927;-59
2023/07/03 06:15:05;;;;;;;;;;;;;;;;;;5091049;28;19924;-59
2023/07/03 06:17:32;;;;;;;;;;;;;;;;;;5093033;28;19927;-60
2023/07/03 06:19:58;;;;;;;;;;;;;;;;;;5094940;28;20357;-60
2023/07/03 06:22:25;;;;;;;;;;;;;;;;;;5098234;28;19930;-60
2023/07/03 06:24:51;;;;;;;;;;;;;;;;;;5092241;28;19920;-60
2023/07/03 06:27:18;;;;;;;;;;;;;;;;;;5090607;28;20308;-62
2023/07/03 06:29:44;;;;;;;;;;;;;;;;;;5093543;28;19950;-50
2023/07/03 06:32:11;;;;;;;;;;;;;;;;;;5090827;28;19926;-48
2023/07/03 06:34:38;;;;;;;;;;;;;;;;;;5087483;28;19928;-46
2023/07/03 06:37:06;;;;;;;;;;;;;;;;;;5091359;28;20288;-46
2023/07/03 06:39:32;;;;;;;;;;;;;;;;;;5089069;28;19935;-48
2023/07/03 06:41:59;;;;;;;;;;;;;;;;;;5089016;28;19924;-59
2023/07/03 06:44:25;;;;;;;;;;;;;;;;;;5092688;28;19927;-59
2023/07/03 06:46:52;;;;;;;;;;;;;;;;;;5092652;28;19935;-59
2023/07/03 06:49:20;;;;;;;;;;;;;;;;;;5095195;28;19920;-59
2023/07/03 06:51:46;;;;;;;;;;;;;;;;;;5093518;28;19927;-62
2023/07/03 06:54:13;;;;;;;;;;;;;;;;;;5092939;28;19920;-59
2023/07/03 06:56:39;;;;;;;;;;;;;;;;;;5088990;28;19942;-58
2023/07/03 06:59:06;;;;;;;;;;;;;;;;;;5088115;28;19924;-58
2023/07/03 07:01:33;;;;;;;;;;;;;;;;;;5087548;28;20373;-59
2023/07/03 07:03:59;;;;;;;;;;;;;;;;;;5087628;28;19920;-58
2023/07/03 07:06:25;;;;;;;;;;;;;;;;;;5084515;28;19991;-59
2023/07/03 07:08:52;;;;;;;;;;;;;;;;;;5086343;28;19947;-58
2023/07/03 07:11:18;;;;;;;;;;;;;;;;;;5089180;28;20427;-58
2023/07/03 07:13:45;;;;;;;;;;;;;;;;;;5086440;28;20300;-58
2023/07/03 07:16:11;;;;;;;;;;;;;;;;;;5087588;28;19983;-58
2023/07/03 07:18:38;;;;;;;;;;;;;;;;;;5091569;28;19920;-59
2023/07/03 07:21:04;;;;;;;;;;;;;;;;;;5086806;28;19924;-59
2023/07/03 07:23:31;;;;;;;;;;;;;;;;;;5088105;28;19920;-58
2023/07/03 07:25:57;;;;;;;;;;;;;;;;;;5086796;28;20292;-61
2023/07/03 07:28:24;;;;;;;;;;;;;;;;;;5095373;28;20268;-58
2023/07/03 07:30:50;;;;;;;;;;;;;;;;;;5093190;28;19926;-63
2023/07/03 07:33:17;;;;;;;;;;;;;;;;;;5091398;28;20169;-62
2023/07/03 07:35:43;;;;;;;;;;;;;;;;;;5092979;28;19920;-61
2023/07/03 07:38:10;;;;;;;;;;;;;;;;;;5093172;28;20288;-61
2023/07/03 07:40:36;;;;;;;;;;;;;;;;;;5094679;28;19921;-62
2023/07/03 07:43:03;;;;;;;;;;;;;;;;;;5092651;28;19920;-62
2023/07/03 07:45:30;;;;;;;;;;;;;;;;;;5090812;28;19925;-62
2023/07/03 07:47:56;;;;;;;;;;;;;;;;;;5091590;28;19935;-61
2023/07/03 07:50:23;;;;;;;;;;;;;;;;;;5090700;28;19920;-58
2023/07/03 07:52:49;;;;;;;;;;;;;;;;;;5083329;28;19920;-58
2023/07/03 07:55:16;;;;;;;;;;;;;;;;;;5088819;28;19931;-59
2023/07/03 07:57:42;;;;;;;;;;;;;;;;;;5090994;28;19920;-62
2023/07/03 08:00:09;;;;;;;;;;;;;;;;;;5089715;28;19920;-61
2023/07/03 08:02:35;;;;;;;;;;;;;;;;;;5091045;28;20360;-61
2023/07/03 08:05:02;;;;;;;;;;;;;;;;;;5095114;28;19920;-58
2023/07/03 08:07:28;;;;;;;;;;;;;;;;;;5091335;28;19927;-58
2023/07/03 08:09:55;;;;;;;;;;;;;;;;;;5092322;28;19920;-61
2023/07/03 08:12:21;;;;;;;;;;;;;;;;;;5094301;28;20388;-58
2023/07/03 08:14:48;;;;;;;;;;;;;;;;;;5093485;28;20284;-59
2023/07/03 08:17:14;;;;;;;;;;;;;;;;;;5089484;28;19932;-58
2023/07/03 08:19:41;;;;;;;;;;;;;;;;;;5092566;28;19927;-58
2023/07/03 08:22:08;;;;;;;;;;;;;;;;;;5091224;28;20316;-59
2023/07/03 08:24:34;;;;;;;;;;;;;;;;;;5092787;28;19920;-62
2023/07/03 08:27:01;;;;;;;;;;;;;;;;;;5093125;28;19931;-62
2023/07/03 08:29:27;;;;;;;;;;;;;;;;;;5091019;28;20257;-62
2023/07/03 08:31:54;;;;;;;;;;;;;;;;;;5089617;28;19939;-62
2023/07/03 08:34:20;;;;;;;;;;;;;;;;;;5091734;28;19927;-62
2023/07/03 08:36:46;;;;;;;;;;;;;;;;;;5091692;28;19920;-62
2023/07/03 08:39:13;;;;;;;;;;;;;;;;;;5093682;28;20395;-62
2023/07/03 08:41:39;;;;;;;;;;;;;;;;;;5092583;28;19920;-62
2023/07/03 08:44:06;;;;;;;;;;;;;;;;;;5092569;28;21543;-62
2023/07/03 08:46:33;;;;;;;;;;;;;;;;;;5097122;28;19920;-62
2023/07/03 08:49:03;;;;;;;;;;;;;;;;;;5092818;28;19943;-58
2023/07/03 08:51:30;;;;;;;;;;;;;;;;;;5088036;28;19927;-58
2023/07/03 08:54:04;;;;;;;;;;;;;;;;;;5093322;28;19931;-59
2023/07/03 08:56:30;;;;;;;;;;;;;;;;;;5091724;28;19943;-60
2023/07/03 08:59:06;;;;;;;;;;;;;;;;;;5091326;28;19943;-60
2023/07/03 09:01:32;;;;;;;;;;;;;;;;;;5084865;28;19928;-60
2023/07/03 09:03:59;;;;;;;;;;;;;;;;;;5090647;28;19920;-63
2023/07/03 09:06:25;;;;;;;;;;;;;;;;;;5093153;28;19939;-63
2023/07/03 09:08:51;;;;;;;;;;;;;;;;;;5089203;28;20042;-64
2023/07/03 09:11:18;;;;;;;;;;;;;;;;;;5089427;28;19936;-62
2023/07/03 09:13:44;;;;;;;;;;;;;;;;;;5085629;28;19920;-63
2023/07/03 09:16:11;;;;;;;;;;;;;;;;;;5092447;28;19927;-63
2023/07/03 09:18:38;;;;;;;;;;;;;;;;;;5090071;28;19920;-61
2023/07/03 09:21:04;;;;;;;;;;;;;;;;;;5095476;28;19920;-63
2023/07/03 09:23:31;;;;;;;;;;;;;;;;;;5090424;28;19920;-62
2023/07/03 09:25:57;;;;;;;;;;;;;;;;;;5091835;28;19931;-63
2023/07/03 09:28:24;;;;;;;;;;;;;;;;;;5090802;28;19927;-62
2023/07/03 09:30:50;;;;;;;;;;;;;;;;;;5089231;28;19920;-63
2023/07/03 09:33:17;;;;;;;;;;;;;;;;;;5092229;28;19928;-63
2023/07/03 09:35:43;;;;;;;;;;;;;;;;;;5090561;28;19920;-62
2023/07/03 09:38:10;;;;;;;;;;;;;;;;;;5088835;28;20006;-62
2023/07/03 09:40:37;;;;;;;;;;;;;;;;;;5092552;28;19930;-63
2023/07/03 09:43:03;;;;;;;;;;;;;;;;;;5089985;28;19931;-62
2023/07/03 09:45:30;;;;;;;;;;;;;;;;;;5089129;28;20427;-61
2023/07/03 09:47:57;;;;;;;;;;;;;;;;;;5087783;28;19927;-63
2023/07/03 09:50:23;;;;;;;;;;;;;;;;;;5090566;28;20289;-60
2023/07/03 09:52:50;;;;;;;;;;;;;;;;;;5088878;28;19928;-63
2023/07/03 09:55:16;;;;;;;;;;;;;;;;;;5089908;28;19931;-63
2023/07/03 09:57:43;;;;;;;;;;;;;;;;;;5091606;28;19942;-61
2023/07/03 10:00:11;;;;;;;;;;;;;;;;;;5087971;28;19928;-61
2023/07/03 10:02:37;;;;;;;;;;;;;;;;;;5088756;28;19920;-62
2023/07/03 10:05:04;;;;;;;;;;;;;;;;;;5089797;28;19919;-62
2023/07/03 11:18:39;;;;;;;7.10;3.60;;;;;;;;;;5130269;27;20197;-78
2023/07/03 11:21:10;;;;;;;8.38;3.85;;;;;;;;;;5118086;28;20377;-78
2023/07/03 11:23:45;;;;;;;6.32;2.78;;;;;;;;;;5114261;28;20515;-78
2023/07/03 11:26:17;;;;;;;6.80;3.33;;;;;;;;;;5124830;28;20062;-81
2023/07/03 11:28:45;;;;;;;8.18;3.03;;;;;;;;;;5120802;27;20043;-78
2023/07/03 11:31:14;;;;;;;6.15;2.70;;;;;;;;;;5124773;28;20059;-79
2023/07/03 11:33:43;;;;;;;10.30;3.28;;;;;;;;;;5116033;28;20048;-79
2023/07/03 11:36:29;;;;;;;8.20;3.00;;;;;;;;;;5127533;28;20077;-77
2023/07/03 11:39:14;;;;;;;6.93;2.80;;;;;;;;;;5112942;28;20060;-78
2023/07/03 11:41:48;;;;;;;6.63;3.17;;;;;;;;;;5117619;28;20055;-77
2023/07/03 11:44:29;;;;;;;6.57;3.13;;;;;;;;;;5117396;27;20527;-77
2023/07/03 11:46:57;;;;;;;7.68;2.95;;;;;;;;;;5121029;28;20048;-78
2023/07/03 11:49:31;;;;;;;7.00;3.20;;;;;;;;;;5124356;28;20066;-78
2023/07/03 11:52:02;;;;;;;6.63;2.97;;;;;;;;;;5123569;28;20434;-80
2023/07/03 11:54:30;;;;;;;6.80;3.33;;;;;;;;;;5125422;27;20054;-77
2023/07/03 11:56:59;;;;;;;6.30;2.67;;;;;;;;;;5116294;28;20066;-79
2023/07/03 11:59:29;;;;;;;7.32;2.88;;;;;;;;;;5118483;28;20404;-79
2023/07/03 12:02:16;;;;;;;9.75;2.92;;;;;;;;;;5122142;27;20500;-78
2023/07/03 12:04:51;;;;;;;16.80;3.40;;;;;;;;;;5117369;28;20496;-78
2023/07/03 12:07:37;;;;;;;5.97;2.92;;;;;;;;;;5122291;28;20122;-78
2023/07/03 12:10:18;;;;;;;4.55;2.50;;;;;;;;;;5123809;27;20050;-80
2023/07/03 12:12:50;;;;;;;5.72;3.00;;;;;;;;;;5075125;28;20059;-81
2023/07/03 12:15:17;;;;;;;6.32;2.95;;;;;;;;;;5111282;28;20048;-78
2023/07/03 12:17:45;;;;;;;5.78;2.90;;;;;;;;;;5116522;27;20396;-78
2023/07/03 12:20:14;;;;;;;9.85;3.53;;;;;;;;;;5120537;28;20665;-78
2023/07/03 12:22:42;;;;;;;8.73;3.53;;;;;;;;;;5112858;28;20397;-78
2023/07/03 12:25:10;;;;;;;7.60;3.70;;;;;;;;;;5112612;28;20044;-78
2023/07/03 12:27:37;;;;;;;9.55;3.53;;;;;;;;;;5120334;27;20051;-77
2023/07/03 12:30:07;;;;;;;7.85;3.35;;;;;;;;;;5114384;28;20050;-80
2023/07/03 12:32:35;;;;;;;8.02;3.53;;;;;;;;;;5094987;28;20055;-81
2023/07/03 12:35:10;;;;;;;6.10;3.00;;;;;;;;;;5102517;28;20054;-80
2023/07/03 12:37:41;;;;;;;9.38;3.38;;;;;;;;;;5101747;28;20043;-80
2023/07/03 12:40:09;;;;;;;8.98;3.67;;;;;;;;;;5098060;28;20043;-80
2023/07/03 12:42:36;;;;;;;10.35;3.50;;;;;;;;;;5095311;28;20060;-83
2023/07/03 12:45:14;;;;;;;10.02;4.18;;;;;;;;;;5106973;28;20059;-80
2023/07/03 12:47:41;;;;;;;7.93;3.95;;;;;;;;;;5107117;28;20387;-83
2023/07/03 12:50:13;;;;;;;14.00;3.53;;;;;;;;;;5095979;28;20060;-78
2023/07/03 12:52:41;;;;;;;8.38;3.25;;;;;;;;;;5106467;28;20063;-79
2023/07/03 12:55:08;;;;;;;9.07;3.58;;;;;;;;;;5101536;27;20050;-79
2023/07/03 12:57:37;;;;;;;8.93;3.47;;;;;;;;;;5098794;28;20044;-79
2023/07/03 13:00:06;;;;;;;;;;;;;;;;;;5099580;28;20055;-79
2023/07/03 13:02:33;;;;;;;7.90;3.50;;;;;;;;;;5097303;28;19920;-82
2023/07/03 13:05:01;;;;;;;8.63;3.63;;;;;;;;;;5098202;28;21059;-79
2023/07/03 13:07:28;;;;;;;7.73;3.20;;;;;;;;;;5107633;28;20044;-80
2023/07/03 13:09:57;;;;;;;7.18;3.28;;;;;;;;;;5104167;28;20463;-80
2023/07/03 13:12:25;;;;;;;7.13;3.30;;;;;;;;;;5108159;28;20052;-80
2023/07/03 13:14:59;;;;;;;7.57;3.47;;;;;;;;;;5093450;28;20417;-77
2023/07/03 13:17:27;;;;;;;13.43;4.45;;;;;;;;;;5102786;28;20401;-79
2023/07/03 13:19:54;;;;;;;9.02;3.60;;;;;;;;;;5097690;28;20048;-79
2023/07/03 13:22:21;;;;;;;9.35;3.83;;;;;;;;;;5097933;28;20052;-79
2023/07/03 13:24:49;;;;;;;8.23;3.45;;;;;;;;;;5107389;28;20484;-78
2023/07/03 13:27:21;;;;;;;10.65;3.90;;;;;;;;;;5104183;28;20441;-80
2023/07/03 13:29:47;;;;;;;7.63;3.22;;;;;;;;;;5105823;28;20055;-78
2023/07/03 13:32:15;;;;;;;8.13;3.30;;;;;;;;;;5100114;28;20056;-80
2023/07/03 13:34:55;;;;;;;6.57;3.42;;;;;;;;;;5094949;28;20050;-78
2023/07/03 13:37:23;;;;;;;6.95;3.67;;;;;;;;;;5094312;28;20056;-79
2023/07/03 13:39:51;;;;;;;8.73;3.10;;;;;;;;;;5096226;28;20056;-78
2023/07/03 13:42:17;;;;;;;9.75;3.95;;;;;;;;;;5104805;28;20067;-78
2023/07/03 13:44:46;;;;;;;9.02;3.13;;;;;;;;;;5094230;28;20055;-78
2023/07/03 13:47:12;;;;;;;9.10;3.60;;;;;;;;;;5108451;28;20063;-77
2023/07/03 13:49:40;;;;;;;11.00;3.42;;;;;;;;;;5098381;28;20052;-77
2023/07/03 13:52:07;;;;;;;12.27;3.55;;;;;;;;;;5098666;28;20346;-82
2023/07/03 13:54:33;;;;;;;12.35;3.75;;;;;;;;;;5098625;28;20059;-80
2023/07/03 13:57:00;;;;;;;9.07;3.58;;;;;;;;;;5100791;28;20058;-81
2023/07/03 13:59:27;;;;;;;7.20;3.35;;;;;;;;;;5094254;28;20055;-81
2023/07/03 14:01:55;;;;;;;11.30;4.13;;;;;;;;;;5102370;28;20051;-77
2023/07/03 14:04:22;;;;;;;10.93;3.45;;;;;;;;;;5099874;28;20488;-78
2023/07/03 14:06:49;;;;;;;10.30;3.53;;;;;;;;;;5101897;28;20052;-78
2023/07/03 14:09:15;;;;;;;8.15;3.88;;;;;;;;;;5095062;28;20063;-78
2023/07/03 14:11:43;;;;;;;9.57;3.95;;;;;;;;;;5092881;28;20052;-78
2023/07/03 14:14:10;;;;;;;8.52;3.60;;;;;;;;;;5093501;28;20114;-78
2023/07/03 14:16:37;;;;;;;8.55;3.45;;;;;;;;;;5092712;28;20079;-78
2023/07/03 14:19:05;;;;;;;7.50;3.13;;;;;;;;;;5093531;28;20059;-78
2023/07/03 14:21:33;;;;;;;7.25;3.33;;;;;;;;;;5106837;28;20155;-78
2023/07/03 14:24:00;;;;;;;8.55;4.00;;;;;;;;;;5109762;28;20048;-79
2023/07/03 14:26:27;;;;;;;8.20;3.65;;;;;;;;;;5111295;28;20055;-78
2023/07/03 14:28:53;;;;;;;6.80;3.35;;;;;;;;;;5113575;28;20051;-79
2023/07/03 14:31:20;;;;;;;8.82;3.42;;;;;;;;;;5113024;28;20055;-78
2023/07/03 14:33:47;;;;;;;9.88;3.47;;;;;;;;;;5113181;28;20051;-79
2023/07/03 14:36:15;;;;;;;8.55;3.40;;;;;;;;;;5112012;28;20078;-78
2023/07/03 14:38:42;;;;;;;8.33;3.80;;;;;;;;;;5112110;28;20043;-78
2023/07/03 14:41:09;;;;;;;9.82;3.50;;;;;;;;;;5112721;28;20058;-78
2023/07/03 14:43:36;;;;;;;8.00;3.30;;;;;;;;;;5113247;28;20377;-78
2023/07/03 14:46:03;;;;;;;6.53;3.00;;;;;;;;;;5113370;28;20056;-78
2023/07/03 14:48:29;;;;;;;9.93;3.88;;;;;;;;;;5113052;28;20062;-78
2023/07/03 14:51:02;;;;;;;7.63;3.10;;;;;;;;;;5112874;28;20063;-78
2023/07/03 14:53:31;;;;;;;9.50;4.30;;;;;;;;;;5105102;28;20412;-78
2023/07/03 14:55:58;;;;;;;9.57;3.95;;;;;;;;;;5092355;28;20055;-78
2023/07/03 14:58:25;;;;;;;9.48;4.03;;;;;;;;;;5092488;28;20079;-78
2023/07/03 15:00:53;;;;;;;7.13;3.60;;;;;;;;;;5092478;28;20409;-78
2023/07/03 15:03:19;;;;;;;11.07;4.15;;;;;;;;;;5092434;28;20059;-78
2023/07/03 15:05:46;;;;;;;7.90;3.95;;;;;;;;;;5092754;28;20060;-78
2023/07/03 15:08:14;;;;;;;8.95;3.60;;;;;;;;;;5100069;28;20047;-78
2023/07/03 15:10:42;;;;;;;7.95;3.53;;;;;;;;;;5112853;28;20055;-78
2023/07/03 15:13:09;;;;;;;7.80;4.27;;;;;;;;;;5113113;28;20051;-78
2023/07/03 15:15:35;;;;;;;7.82;3.67;;;;;;;;;;5112955;28;20044;-78
2023/07/03 15:18:03;;;;;;;7.65;3.50;;;;;;;;;;5112101;28;20074;-78
2023/07/03 15:20:30;;;;;;;9.50;3.63;;;;;;;;;;5112792;28;20058;-78
2023/07/03 15:22:57;;;;;;;6.88;3.78;;;;;;;;;;5102455;28;20059;-78
2023/07/03 15:25:23;;;;;;;8.10;4.07;;;;;;;;;;5092214;28;20048;-79
2023/07/03 15:27:51;;;;;;;8.93;4.25;;;;;;;;;;5092480;28;20593;-79
2023/07/03 15:30:18;;;;;;;6.35;3.72;;;;;;;;;;5108657;28;20056;-78
2023/07/03 15:32:50;;;;;;;7.25;3.88;;;;;;;;;;5112828;28;20154;-78
2023/07/03 15:35:16;;;;;;;9.15;3.60;;;;;;;;;;5112826;28;20051;-78
2023/07/03 15:37:43;;;;;;;8.32;4.03;;;;;;;;;;5103473;28;20048;-78
2023/07/03 15:40:11;;;;;;;10.95;4.32;;;;;;;;;;5092336;28;20373;-79
2023/07/03 15:42:38;;;;;;;11.15;4.35;;;;;;;;;;5096046;28;20418;-78
2023/07/03 15:45:06;;;;;;;12.98;5.07;;;;;;;;;;5112695;28;20058;-78
2023/07/03 15:47:34;;;;;;;9.93;4.20;;;;;;;;;;5112393;28;20435;-78
2023/07/03 15:50:01;;;;;;;11.55;4.38;;;;;;;;;;5112577;28;20047;-77
2023/07/03 15:52:28;;;;;;;11.02;4.80;;;;;;;;;;5109692;28;20055;-79
2023/07/03 15:54:55;;;;;;;10.18;4.18;;;;;;;;;;5112351;28;20420;-78
2023/07/03 15:57:22;;;;;;;12.38;4.60;;;;;;;;;;5112444;28;20408;-78
2023/07/03 15:59:49;;;;;;;8.40;4.40;;;;;;;;;;5102566;28;20055;-78
2023/07/03 16:02:17;;;;;;;9.32;4.32;;;;;;;;;;5091297;28;20499;-83
2023/07/03 16:04:44;;;;;;;9.27;4.68;;;;;;;;;;5091967;28;20048;-84
2023/07/03 16:07:11;;;;;;;10.27;4.70;;;;;;;;;;5107468;28;20058;-84
2023/07/03 16:09:37;;;;;;;13.30;4.60;;;;;;;;;;5107891;28;20420;-84
2023/07/03 16:12:05;;;;;;;9.13;4.40;;;;;;;;;;5099377;28;20059;-86
2023/07/03 16:14:31;;;;;;;8.35;4.68;;;;;;;;;;5105354;28;20048;-83
2023/07/03 16:16:58;;;;;;;8.63;4.10;;;;;;;;;;5104633;28;20067;-85
2023/07/03 16:19:28;;;;;;;8.05;4.72;;;;;;;;;;5101966;28;20044;-85
2023/07/03 16:21:55;;;;;;;8.98;4.00;;;;;;;;;;5111917;27;20055;-83
2023/07/03 16:24:22;;;;;;;10.50;4.63;;;;;;;;;;5097246;28;20055;-83
2023/07/03 16:26:49;;;;;;;8.07;4.05;;;;;;;;;;5114380;28;20066;-83
2023/07/03 16:29:16;;;;;;;9.15;4.95;;;;;;;;;;5115876;28;20052;-82
2023/07/03 16:31:43;;;;;;;7.75;4.32;;;;;;;;;;5102085;28;20056;-82
2023/07/03 16:34:10;;;;;;;11.88;4.68;;;;;;;;;;5102712;28;20043;-85
2023/07/03 16:36:38;;;;;;;7.93;4.28;;;;;;;;;;5095530;28;20060;-85
2023/07/03 16:39:05;;;;;;;10.13;4.47;;;;;;;;;;5095828;28;20048;-86
2023/07/03 16:41:34;;;;;;;14.30;5.80;;;;;;;;;;5096795;28;20063;-86
2023/07/03 16:44:01;;;;;;;9.85;4.82;;;;;;;;;;5096178;28;20473;-86
2023/07/03 16:46:28;;;;;;;8.40;4.18;;;;;;;;;;5095681;28;20051;-85
2023/07/03 16:48:55;;;;;;;10.43;4.53;;;;;;;;;;5095618;28;20401;-86
2023/07/03 16:51:23;;;;;;;10.02;4.85;;;;;;;;;;5095408;28;20059;-86
2023/07/03 16:53:51;;;;;;;10.05;5.10;;;;;;;;;;5109348;27;20047;-82
2023/07/03 16:56:19;;;;;;;10.88;4.95;;;;;;;;;;5099739;28;20090;-83
2023/07/03 16:58:46;;;;;;;10.23;4.85;;;;;;;;;;5094841;28;20400;-84
2023/07/03 17:01:14;;;;;;;10.30;4.88;;;;;;;;;;5094957;28;20051;-84
2023/07/03 17:03:41;;;;;;;11.15;5.07;;;;;;;;;;5103043;28;20048;-83
2023/07/03 17:06:11;;;;;;;8.27;5.20;;;;;;;;;;5102325;28;20056;-84
2023/07/03 17:08:38;;;;;;;7.95;4.80;;;;;;;;;;5094875;28;20492;-83